sensor_id;sensor_type;location;lat;lon;timestamp;P1;durP1;ratioP1;P2;durP2;ratioP2
16520;SDS011;8373;48.110;11.522;2022-09-16T04:03:20;18.37;;;9.00;;
16520;SDS011;8373;48.110;11.522;2022-09-16T04:05:50;15.80;;;8.50;;
16520;SDS011;8373;48.110;11.522;2022-09-16T04:08:18;16.87;;;9.40;;
16520;SDS011;8373;48.110;11.522;2022-09-16T04:10:52;25.37;;;8.43;;
16520;SDS011;8373;48.110;11.522;2022-09-16T04:13:19;18.60;;;9.53;;
16520;SDS011;8373;48.110;11.522;2022-09-16T04:15:46;17.23;;;9.60;;
16520;SDS011;8373;48.110;11.522;2022-09-16T04:18:13;19.10;;;9.77;;
16520;SDS011;8373;48.110;11.522;2022-09-16T04:20:41;21.73;;;11.10;;
16520;SDS011;8373;48.110;11.522;2022-09-16T04:23:08;20.70;;;10.10;;
16520;SDS011;8373;48.110;11.522;2022-09-16T04:25:35;16.13;;;9.53;;
16520;SDS011;8373;48.110;11.522;2022-09-16T04:28:02;21.57;;;9.97;;
16520;SDS011;8373;48.110;11.522;2022-09-16T04:30:29;18.00;;;9.67;;
16520;SDS011;8373;48.110;11.522;2022-09-16T04:32:56;32.63;;;9.93;;
16520;SDS011;8373;48.110;11.522;2022-09-16T04:35:23;15.90;;;9.40;;
16520;SDS011;8373;48.110;11.522;2022-09-16T04:37:52;21.90;;;9.60;;
16520;SDS011;8373;48.110;11.522;2022-09-16T04:40:19;18.60;;;9.57;;
16520;SDS011;8373;48.110;11.522;2022-09-16T04:42:49;20.47;;;9.23;;
16520;SDS011;8373;48.110;11.522;2022-09-16T04:45:16;17.40;;;9.87;;
16520;SDS011;8373;48.110;11.522;2022-09-16T04:47:44;17.27;;;9.70;;
16520;SDS011;8373;48.110;11.522;2022-09-16T04:50:11;29.60;;;10.30;;
16520;SDS011;8373;48.110;11.522;2022-09-16T04:52:37;20.00;;;9.60;;
16520;SDS011;8373;48.110;11.522;2022-09-16T04:55:06;21.47;;;10.30;;
16520;SDS011;8373;48.110;11.522;2022-09-16T04:57:34;16.63;;;8.53;;
16520;SDS011;8373;48.110;11.522;2022-09-16T05:00:01;18.17;;;9.90;;
16520;SDS011;8373;48.110;11.522;2022-09-16T05:02:29;19.00;;;10.80;;
16520;SDS011;8373;48.110;11.522;2022-09-16T05:04:56;23.43;;;11.50;;
16520;SDS011;8373;48.110;11.522;2022-09-16T05:07:23;30.93;;;10.43;;
16520;SDS011;8373;48.110;11.522;2022-09-16T05:09:50;19.20;;;9.73;;
16520;SDS011;8373;48.110;11.522;2022-09-16T05:12:18;20.30;;;10.70;;
16520;SDS011;8373;48.110;11.522;2022-09-16T05:14:46;22.80;;;10.87;;
16520;SDS011;8373;48.110;11.522;2022-09-16T05:17:13;20.77;;;12.10;;
16520;SDS011;8373;48.110;11.522;2022-09-16T05:19:40;19.40;;;10.33;;
16520;SDS011;8373;48.110;11.522;2022-09-16T05:22:07;18.73;;;11.20;;
16520;SDS011;8373;48.110;11.522;2022-09-16T05:24:34;22.60;;;12.10;;
16520;SDS011;8373;48.110;11.522;2022-09-16T05:27:01;22.17;;;11.90;;
16520;SDS011;8373;48.110;11.522;2022-09-16T05:29:30;27.03;;;11.30;;
16520;SDS011;8373;48.110;11.522;2022-09-16T05:31:56;21.40;;;12.17;;
16520;SDS011;8373;48.110;11.522;2022-09-16T05:34:23;33.10;;;11.70;;
16520;SDS011;8373;48.110;11.522;2022-09-16T05:36:52;23.60;;;11.83;;
16520;SDS011;8373;48.110;11.522;2022-09-16T05:39:20;22.33;;;12.97;;
16520;SDS011;8373;48.110;11.522;2022-09-16T05:41:48;20.13;;;10.83;;
16520;SDS011;8373;48.110;11.522;2022-09-16T05:44:17;28.90;;;15.07;;
16520;SDS011;8373;48.110;11.522;2022-09-16T05:46:46;29.20;;;13.30;;
16520;SDS011;8373;48.110;11.522;2022-09-16T05:49:13;30.00;;;14.27;;
16520;SDS011;8373;48.110;11.522;2022-09-16T05:51:44;23.23;;;12.90;;
16520;SDS011;8373;48.110;11.522;2022-09-16T05:54:12;24.37;;;13.30;;
16520;SDS011;8373;48.110;11.522;2022-09-16T05:56:39;23.10;;;12.27;;
16520;SDS011;8373;48.110;11.522;2022-09-16T05:59:06;27.73;;;12.93;;
16520;SDS011;8373;48.110;11.522;2022-09-16T06:01:36;23.10;;;12.27;;
16520;SDS011;8373;48.110;11.522;2022-09-16T06:04:05;24.13;;;12.90;;
16520;SDS011;8373;48.110;11.522;2022-09-16T06:06:33;25.70;;;11.93;;
16520;SDS011;8373;48.110;11.522;2022-09-16T06:09:03;24.03;;;13.80;;
16520;SDS011;8373;48.110;11.522;2022-09-16T06:11:34;24.63;;;14.00;;
16520;SDS011;8373;48.110;11.522;2022-09-16T06:14:03;23.90;;;11.87;;
16520;SDS011;8373;48.110;11.522;2022-09-16T06:16:31;28.00;;;12.30;;
16520;SDS011;8373;48.110;11.522;2022-09-16T06:18:59;21.40;;;13.00;;
16520;SDS011;8373;48.110;11.522;2022-09-16T06:21:28;30.30;;;13.60;;
16520;SDS011;8373;48.110;11.522;2022-09-16T06:23:56;22.03;;;14.00;;
16520;SDS011;8373;48.110;11.522;2022-09-16T06:26:24;24.00;;;11.97;;
16520;SDS011;8373;48.110;11.522;2022-09-16T06:28:52;22.97;;;11.97;;
16520;SDS011;8373;48.110;11.522;2022-09-16T06:31:20;20.47;;;12.17;;
16520;SDS011;8373;48.110;11.522;2022-09-16T06:33:50;26.20;;;12.93;;
16520;SDS011;8373;48.110;11.522;2022-09-16T06:36:19;26.00;;;12.80;;
16520;SDS011;8373;48.110;11.522;2022-09-16T06:38:49;27.73;;;13.30;;
16520;SDS011;8373;48.110;11.522;2022-09-16T06:41:17;40.83;;;14.90;;
16520;SDS011;8373;48.110;11.522;2022-09-16T06:43:46;32.60;;;12.70;;
16520;SDS011;8373;48.110;11.522;2022-09-16T06:46:16;30.70;;;12.60;;
16520;SDS011;8373;48.110;11.522;2022-09-16T06:48:44;29.90;;;13.10;;
16520;SDS011;8373;48.110;11.522;2022-09-16T06:51:13;25.67;;;14.53;;
16520;SDS011;8373;48.110;11.522;2022-09-16T06:53:42;32.87;;;13.50;;
16520;SDS011;8373;48.110;11.522;2022-09-16T06:56:12;24.23;;;13.20;;
16520;SDS011;8373;48.110;11.522;2022-09-16T06:58:42;29.77;;;13.70;;
16520;SDS011;8373;48.110;11.522;2022-09-16T07:01:12;25.93;;;12.83;;
16520;SDS011;8373;48.110;11.522;2022-09-16T07:03:41;26.13;;;13.20;;
16520;SDS011;8373;48.110;11.522;2022-09-16T07:06:09;26.70;;;12.27;;
16520;SDS011;8373;48.110;11.522;2022-09-16T07:08:38;29.97;;;14.10;;
16520;SDS011;8373;48.110;11.522;2022-09-16T07:11:06;23.23;;;12.67;;
16520;SDS011;8373;48.110;11.522;2022-09-16T07:13:35;23.90;;;13.57;;
16520;SDS011;8373;48.110;11.522;2022-09-16T07:16:02;25.67;;;12.77;;
16520;SDS011;8373;48.110;11.522;2022-09-16T07:18:31;28.03;;;13.87;;
16520;SDS011;8373;48.110;11.522;2022-09-16T07:20:59;30.03;;;13.00;;
16520;SDS011;8373;48.110;11.522;2022-09-16T07:23:28;30.80;;;15.43;;
16520;SDS011;8373;48.110;11.522;2022-09-16T07:26:00;26.67;;;12.77;;
16520;SDS011;8373;48.110;11.522;2022-09-16T07:28:28;28.23;;;13.97;;
16520;SDS011;8373;48.110;11.522;2022-09-16T07:30:58;35.90;;;13.60;;
16520;SDS011;8373;48.110;11.522;2022-09-16T07:33:26;34.33;;;14.53;;
16520;SDS011;8373;48.110;11.522;2022-09-16T07:35:56;33.63;;;14.37;;
16520;SDS011;8373;48.110;11.522;2022-09-16T07:38:24;26.77;;;13.73;;
16520;SDS011;8373;48.110;11.522;2022-09-16T07:40:51;26.50;;;14.10;;
16520;SDS011;8373;48.110;11.522;2022-09-16T07:43:18;23.30;;;13.47;;
16520;SDS011;8373;48.110;11.522;2022-09-16T07:45:45;32.37;;;12.53;;
16520;SDS011;8373;48.110;11.522;2022-09-16T07:48:13;22.47;;;13.20;;
16520;SDS011;8373;48.110;11.522;2022-09-16T07:50:40;25.43;;;14.90;;
16520;SDS011;8373;48.110;11.522;2022-09-16T07:53:07;28.90;;;14.40;;
16520;SDS011;8373;48.110;11.522;2022-09-16T07:55:34;28.50;;;13.40;;
16520;SDS011;8373;48.110;11.522;2022-09-16T07:58:01;26.30;;;13.40;;
16520;SDS011;8373;48.110;11.522;2022-09-16T08:00:28;26.50;;;12.33;;
16520;SDS011;8373;48.110;11.522;2022-09-16T08:02:55;26.50;;;13.17;;
16520;SDS011;8373;48.110;11.522;2022-09-16T08:05:24;23.00;;;13.13;;
16520;SDS011;8373;48.110;11.522;2022-09-16T08:07:51;28.93;;;12.63;;
16520;SDS011;8373;48.110;11.522;2022-09-16T08:10:18;32.83;;;13.97;;
16520;SDS011;8373;48.110;11.522;2022-09-16T08:12:45;25.97;;;13.80;;
16520;SDS011;8373;48.110;11.522;2022-09-16T08:15:13;31.73;;;12.63;;
16520;SDS011;8373;48.110;11.522;2022-09-16T08:17:40;29.17;;;13.40;;
16520;SDS011;8373;48.110;11.522;2022-09-16T08:20:07;28.60;;;14.00;;
16520;SDS011;8373;48.110;11.522;2022-09-16T08:22:36;24.17;;;13.20;;
16520;SDS011;8373;48.110;11.522;2022-09-16T08:25:03;30.00;;;14.10;;
16520;SDS011;8373;48.110;11.522;2022-09-16T08:27:33;23.03;;;11.80;;
16520;SDS011;8373;48.110;11.522;2022-09-16T08:30:01;26.90;;;12.83;;
16520;SDS011;8373;48.110;11.522;2022-09-16T08:32:28;33.70;;;13.80;;
16520;SDS011;8373;48.110;11.522;2022-09-16T08:34:55;23.23;;;12.87;;
16520;SDS011;8373;48.110;11.522;2022-09-16T08:37:22;25.97;;;13.67;;
16520;SDS011;8373;48.110;11.522;2022-09-16T08:39:51;25.00;;;13.87;;
16520;SDS011;8373;48.110;11.522;2022-09-16T08:42:28;28.77;;;14.10;;
16520;SDS011;8373;48.110;11.522;2022-09-16T08:47:49;24.07;;;12.97;;
16520;SDS011;8373;48.110;11.522;2022-09-16T08:50:32;25.63;;;13.73;;
16520;SDS011;8373;48.110;11.522;2022-09-16T08:53:04;29.30;;;14.90;;
16520;SDS011;8373;48.110;11.522;2022-09-16T08:55:38;31.37;;;14.10;;
16520;SDS011;8373;48.110;11.522;2022-09-16T08:58:12;26.67;;;12.50;;
16520;SDS011;8373;48.110;11.522;2022-09-16T09:00:42;23.23;;;12.50;;
16520;SDS011;8373;48.110;11.522;2022-09-16T09:03:14;28.93;;;13.50;;
16520;SDS011;8373;48.110;11.522;2022-09-16T09:05:54;35.53;;;14.50;;
16520;SDS011;8373;48.110;11.522;2022-09-16T09:08:29;26.03;;;13.73;;
16520;SDS011;8373;48.110;11.522;2022-09-16T09:11:09;22.53;;;12.07;;
16520;SDS011;8373;48.110;11.522;2022-09-16T09:13:51;24.47;;;12.60;;
16520;SDS011;8373;48.110;11.522;2022-09-16T09:16:30;27.80;;;13.40;;
16520;SDS011;8373;48.110;11.522;2022-09-16T09:19:14;31.63;;;13.40;;
16520;SDS011;8373;48.110;11.522;2022-09-16T09:21:51;24.43;;;13.17;;
16520;SDS011;8373;48.110;11.522;2022-09-16T09:24:35;23.53;;;13.17;;
16520;SDS011;8373;48.110;11.522;2022-09-16T09:27:14;45.47;;;11.97;;
16520;SDS011;8373;48.110;11.522;2022-09-16T09:29:50;25.70;;;13.33;;
16520;SDS011;8373;48.110;11.522;2022-09-16T09:32:26;23.40;;;12.57;;
16520;SDS011;8373;48.110;11.522;2022-09-16T09:35:05;26.70;;;13.27;;
16520;SDS011;8373;48.110;11.522;2022-09-16T09:37:46;31.37;;;13.10;;
16520;SDS011;8373;48.110;11.522;2022-09-16T09:40:31;46.20;;;13.47;;
16520;SDS011;8373;48.110;11.522;2022-09-16T09:43:07;31.00;;;13.20;;
16520;SDS011;8373;48.110;11.522;2022-09-16T09:45:39;23.20;;;12.20;;
16520;SDS011;8373;48.110;11.522;2022-09-16T09:48:11;24.40;;;12.37;;
16520;SDS011;8373;48.110;11.522;2022-09-16T09:50:44;34.20;;;14.20;;
16520;SDS011;8373;48.110;11.522;2022-09-16T09:53:13;30.70;;;13.37;;
16520;SDS011;8373;48.110;11.522;2022-09-16T09:55:46;24.20;;;12.97;;
16520;SDS011;8373;48.110;11.522;2022-09-16T09:58:20;27.17;;;13.50;;
16520;SDS011;8373;48.110;11.522;2022-09-16T10:00:51;32.40;;;13.90;;
16520;SDS011;8373;48.110;11.522;2022-09-16T10:03:20;42.53;;;16.33;;
16520;SDS011;8373;48.110;11.522;2022-09-16T10:05:47;37.73;;;14.67;;
16520;SDS011;8373;48.110;11.522;2022-09-16T10:08:20;31.60;;;13.67;;
16520;SDS011;8373;48.110;11.522;2022-09-16T10:10:50;32.07;;;14.37;;
16520;SDS011;8373;48.110;11.522;2022-09-16T10:13:20;27.73;;;13.87;;
16520;SDS011;8373;48.110;11.522;2022-09-16T10:15:51;25.33;;;13.83;;
16520;SDS011;8373;48.110;11.522;2022-09-16T10:18:21;25.63;;;13.63;;
16520;SDS011;8373;48.110;11.522;2022-09-16T10:20:55;30.47;;;14.67;;
16520;SDS011;8373;48.110;11.522;2022-09-16T10:23:25;28.63;;;13.67;;
16520;SDS011;8373;48.110;11.522;2022-09-16T10:26:02;24.80;;;12.97;;
16520;SDS011;8373;48.110;11.522;2022-09-16T10:28:51;30.27;;;14.40;;
16520;SDS011;8373;48.110;11.522;2022-09-16T10:31:19;26.40;;;14.23;;
16520;SDS011;8373;48.110;11.522;2022-09-16T10:33:47;27.37;;;14.23;;
16520;SDS011;8373;48.110;11.522;2022-09-16T10:36:16;27.57;;;14.27;;
16520;SDS011;8373;48.110;11.522;2022-09-16T10:38:46;32.03;;;13.90;;
16520;SDS011;8373;48.110;11.522;2022-09-16T10:41:18;28.20;;;15.07;;
16520;SDS011;8373;48.110;11.522;2022-09-16T10:43:50;25.80;;;14.47;;
16520;SDS011;8373;48.110;11.522;2022-09-16T10:46:19;30.67;;;14.77;;
16520;SDS011;8373;48.110;11.522;2022-09-16T10:48:47;26.60;;;13.60;;
16520;SDS011;8373;48.110;11.522;2022-09-16T10:51:21;19.97;;;11.87;;
16520;SDS011;8373;48.110;11.522;2022-09-16T10:53:53;25.83;;;12.77;;
16520;SDS011;8373;48.110;11.522;2022-09-16T10:56:21;25.80;;;12.20;;
16520;SDS011;8373;48.110;11.522;2022-09-16T10:59:01;24.90;;;11.57;;
16520;SDS011;8373;48.110;11.522;2022-09-16T11:01:32;31.17;;;13.23;;
16520;SDS011;8373;48.110;11.522;2022-09-16T11:04:21;26.13;;;12.27;;
16520;SDS011;8373;48.110;11.522;2022-09-16T11:07:06;25.73;;;12.50;;
16520;SDS011;8373;48.110;11.522;2022-09-16T11:09:43;31.43;;;13.30;;
16520;SDS011;8373;48.110;11.522;2022-09-16T11:12:25;24.07;;;12.37;;
16520;SDS011;8373;48.110;11.522;2022-09-16T11:15:04;19.37;;;11.20;;
16520;SDS011;8373;48.110;11.522;2022-09-16T11:17:43;23.90;;;9.60;;
16520;SDS011;8373;48.110;11.522;2022-09-16T11:20:41;17.97;;;10.33;;
16520;SDS011;8373;48.110;11.522;2022-09-16T11:23:22;30.77;;;8.70;;
16520;SDS011;8373;48.110;11.522;2022-09-16T11:25:57;22.60;;;9.57;;
16520;SDS011;8373;48.110;11.522;2022-09-16T11:28:45;22.13;;;10.47;;
16520;SDS011;8373;48.110;11.522;2022-09-16T11:31:28;20.10;;;9.63;;
16520;SDS011;8373;48.110;11.522;2022-09-16T11:34:02;21.47;;;10.80;;
16520;SDS011;8373;48.110;11.522;2022-09-16T11:36:36;24.63;;;9.53;;
16520;SDS011;8373;48.110;11.522;2022-09-16T11:39:15;21.73;;;9.63;;
16520;SDS011;8373;48.110;11.522;2022-09-16T11:42:00;22.93;;;9.60;;
16520;SDS011;8373;48.110;11.522;2022-09-16T11:44:36;19.17;;;9.43;;
16520;SDS011;8373;48.110;11.522;2022-09-16T11:47:19;18.87;;;11.10;;
16520;SDS011;8373;48.110;11.522;2022-09-16T11:50:05;23.23;;;9.90;;
16520;SDS011;8373;48.110;11.522;2022-09-16T11:52:47;20.00;;;8.70;;
16520;SDS011;8373;48.110;11.522;2022-09-16T11:55:28;18.43;;;9.37;;
16520;SDS011;8373;48.110;11.522;2022-09-16T11:58:08;36.40;;;10.30;;
16520;SDS011;8373;48.110;11.522;2022-09-16T12:00:43;19.17;;;9.40;;
16520;SDS011;8373;48.110;11.522;2022-09-16T12:03:17;17.90;;;8.13;;
16520;SDS011;8373;48.110;11.522;2022-09-16T12:05:51;16.90;;;8.47;;
16520;SDS011;8373;48.110;11.522;2022-09-16T12:08:28;17.70;;;8.30;;
16520;SDS011;8373;48.110;11.522;2022-09-16T12:10:59;13.93;;;8.00;;
16520;SDS011;8373;48.110;11.522;2022-09-16T12:13:29;24.47;;;8.90;;
16520;SDS011;8373;48.110;11.522;2022-09-16T12:16:03;19.83;;;8.07;;
16520;SDS011;8373;48.110;11.522;2022-09-16T12:18:35;14.77;;;8.30;;
16520;SDS011;8373;48.110;11.522;2022-09-16T12:21:08;13.33;;;7.70;;
16520;SDS011;8373;48.110;11.522;2022-09-16T12:23:41;16.70;;;8.23;;
16520;SDS011;8373;48.110;11.522;2022-09-16T12:26:12;15.20;;;7.77;;
16520;SDS011;8373;48.110;11.522;2022-09-16T12:28:43;16.10;;;7.77;;
16520;SDS011;8373;48.110;11.522;2022-09-16T12:31:16;18.97;;;8.67;;
16520;SDS011;8373;48.110;11.522;2022-09-16T12:33:48;16.53;;;7.97;;
16520;SDS011;8373;48.110;11.522;2022-09-16T12:36:20;18.57;;;8.10;;
16520;SDS011;8373;48.110;11.522;2022-09-16T12:38:50;18.50;;;7.03;;
16520;SDS011;8373;48.110;11.522;2022-09-16T12:41:23;14.20;;;7.43;;
16520;SDS011;8373;48.110;11.522;2022-09-16T12:44:36;13.97;;;8.40;;
16520;SDS011;8373;48.110;11.522;2022-09-16T12:47:29;13.33;;;8.00;;
16520;SDS011;8373;48.110;11.522;2022-09-16T12:50:37;12.47;;;8.10;;
16520;SDS011;8373;48.110;11.522;2022-09-16T12:56:28;14.60;;;7.63;;
16520;SDS011;8373;48.110;11.522;2022-09-16T12:59:18;19.07;;;7.90;;
16520;SDS011;8373;48.110;11.522;2022-09-16T13:01:57;12.70;;;6.90;;
16520;SDS011;8373;48.110;11.522;2022-09-16T13:04:26;16.37;;;7.00;;
16520;SDS011;8373;48.110;11.522;2022-09-16T13:06:58;15.13;;;7.03;;
16520;SDS011;8373;48.110;11.522;2022-09-16T13:09:26;9.93;;;5.37;;
16520;SDS011;8373;48.110;11.522;2022-09-16T13:11:58;11.70;;;6.17;;
16520;SDS011;8373;48.110;11.522;2022-09-16T13:14:27;11.73;;;5.43;;
16520;SDS011;8373;48.110;11.522;2022-09-16T13:16:57;12.93;;;5.90;;
16520;SDS011;8373;48.110;11.522;2022-09-16T13:19:30;8.90;;;5.33;;
16520;SDS011;8373;48.110;11.522;2022-09-16T13:22:04;15.83;;;6.80;;
16520;SDS011;8373;48.110;11.522;2022-09-16T13:24:44;16.67;;;6.40;;
16520;SDS011;8373;48.110;11.522;2022-09-16T13:27:28;12.57;;;5.10;;
16520;SDS011;8373;48.110;11.522;2022-09-16T13:35:48;10.50;;;6.10;;
16520;SDS011;8373;48.110;11.522;2022-09-16T13:38:38;16.10;;;7.03;;
16520;SDS011;8373;48.110;11.522;2022-09-16T13:41:07;13.83;;;6.67;;
16520;SDS011;8373;48.110;11.522;2022-09-16T13:43:47;10.37;;;5.80;;
16520;SDS011;8373;48.110;11.522;2022-09-16T13:46:27;14.87;;;6.13;;
16520;SDS011;8373;48.110;11.522;2022-09-16T13:48:57;10.60;;;5.40;;
16520;SDS011;8373;48.110;11.522;2022-09-16T13:51:37;18.33;;;6.00;;
16520;SDS011;8373;48.110;11.522;2022-09-16T13:54:17;11.43;;;6.07;;
16520;SDS011;8373;48.110;11.522;2022-09-16T13:57:09;11.23;;;4.93;;
16520;SDS011;8373;48.110;11.522;2022-09-16T14:00:00;9.50;;;4.67;;
16520;SDS011;8373;48.110;11.522;2022-09-16T14:02:36;15.63;;;5.50;;
16520;SDS011;8373;48.110;11.522;2022-09-16T14:05:17;12.30;;;5.30;;
16520;SDS011;8373;48.110;11.522;2022-09-16T14:08:03;13.67;;;5.20;;
16520;SDS011;8373;48.110;11.522;2022-09-16T14:10:41;8.47;;;4.50;;
16520;SDS011;8373;48.110;11.522;2022-09-16T14:13:19;14.33;;;5.53;;
16520;SDS011;8373;48.110;11.522;2022-09-16T14:15:47;11.23;;;6.00;;
16520;SDS011;8373;48.110;11.522;2022-09-16T14:18:17;20.03;;;6.30;;
16520;SDS011;8373;48.110;11.522;2022-09-16T14:20:53;14.50;;;6.80;;
16520;SDS011;8373;48.110;11.522;2022-09-16T14:23:25;23.50;;;7.60;;
16520;SDS011;8373;48.110;11.522;2022-09-16T14:25:54;14.73;;;6.47;;
16520;SDS011;8373;48.110;11.522;2022-09-16T14:28:22;15.47;;;7.03;;
16520;SDS011;8373;48.110;11.522;2022-09-16T14:30:52;10.53;;;6.47;;
16520;SDS011;8373;48.110;11.522;2022-09-16T14:33:22;10.60;;;6.60;;
16520;SDS011;8373;48.110;11.522;2022-09-16T14:35:51;12.20;;;6.27;;
16520;SDS011;8373;48.110;11.522;2022-09-16T14:38:21;12.40;;;6.13;;
16520;SDS011;8373;48.110;11.522;2022-09-16T14:40:59;14.43;;;5.97;;
16520;SDS011;8373;48.110;11.522;2022-09-16T14:43:27;15.57;;;6.23;;
16520;SDS011;8373;48.110;11.522;2022-09-16T14:45:54;13.80;;;6.83;;
16520;SDS011;8373;48.110;11.522;2022-09-16T14:48:26;13.87;;;6.70;;
16520;SDS011;8373;48.110;11.522;2022-09-16T14:50:58;11.73;;;6.10;;
16520;SDS011;8373;48.110;11.522;2022-09-16T14:53:27;12.40;;;5.83;;
16520;SDS011;8373;48.110;11.522;2022-09-16T14:55:56;13.03;;;6.23;;
16520;SDS011;8373;48.110;11.522;2022-09-16T14:58:26;13.13;;;6.33;;
16520;SDS011;8373;48.110;11.522;2022-09-16T15:00:56;9.80;;;6.03;;
16520;SDS011;8373;48.110;11.522;2022-09-16T15:03:28;16.63;;;7.37;;
16520;SDS011;8373;48.110;11.522;2022-09-16T15:06:03;16.90;;;5.77;;
16520;SDS011;8373;48.110;11.522;2022-09-16T15:08:37;20.13;;;7.97;;
16520;SDS011;8373;48.110;11.522;2022-09-16T15:11:13;13.17;;;7.10;;
16520;SDS011;8373;48.110;11.522;2022-09-16T15:13:44;15.23;;;6.90;;
16520;SDS011;8373;48.110;11.522;2022-09-16T15:16:13;13.80;;;6.93;;
16520;SDS011;8373;48.110;11.522;2022-09-16T15:18:43;15.23;;;7.10;;
16520;SDS011;8373;48.110;11.522;2022-09-16T15:21:19;17.47;;;8.03;;
16520;SDS011;8373;48.110;11.522;2022-09-16T15:23:49;12.67;;;7.37;;
16520;SDS011;8373;48.110;11.522;2022-09-16T15:26:19;22.07;;;7.50;;
16520;SDS011;8373;48.110;11.522;2022-09-16T15:28:50;13.90;;;6.73;;
16520;SDS011;8373;48.110;11.522;2022-09-16T15:31:27;12.90;;;6.77;;
16520;SDS011;8373;48.110;11.522;2022-09-16T15:33:58;13.20;;;6.90;;
16520;SDS011;8373;48.110;11.522;2022-09-16T15:36:31;15.00;;;6.97;;
16520;SDS011;8373;48.110;11.522;2022-09-16T15:39:00;11.30;;;6.53;;
16520;SDS011;8373;48.110;11.522;2022-09-16T15:41:27;15.13;;;6.97;;
16520;SDS011;8373;48.110;11.522;2022-09-16T15:43:58;14.40;;;7.33;;
16520;SDS011;8373;48.110;11.522;2022-09-16T15:46:26;19.00;;;7.60;;
16520;SDS011;8373;48.110;11.522;2022-09-16T15:48:54;17.80;;;6.80;;
16520;SDS011;8373;48.110;11.522;2022-09-16T15:51:25;11.87;;;7.43;;
16520;SDS011;8373;48.110;11.522;2022-09-16T15:53:58;9.50;;;6.27;;
16520;SDS011;8373;48.110;11.522;2022-09-16T15:56:36;23.13;;;6.80;;
16520;SDS011;8373;48.110;11.522;2022-09-16T15:59:19;16.70;;;6.23;;
16520;SDS011;8373;48.110;11.522;2022-09-16T16:01:51;15.23;;;6.83;;
16520;SDS011;8373;48.110;11.522;2022-09-16T16:04:21;11.70;;;6.50;;
16520;SDS011;8373;48.110;11.522;2022-09-16T16:06:51;15.77;;;8.40;;
16520;SDS011;8373;48.110;11.522;2022-09-16T16:12:07;16.70;;;7.90;;
16520;SDS011;8373;48.110;11.522;2022-09-16T16:14:38;15.03;;;7.40;;
16520;SDS011;8373;48.110;11.522;2022-09-16T16:17:07;18.73;;;7.83;;
16520;SDS011;8373;48.110;11.522;2022-09-16T16:19:36;19.87;;;8.73;;
16520;SDS011;8373;48.110;11.522;2022-09-16T16:22:05;16.97;;;7.93;;
16520;SDS011;8373;48.110;11.522;2022-09-16T16:24:33;13.30;;;7.67;;
16520;SDS011;8373;48.110;11.522;2022-09-16T16:27:00;13.53;;;7.43;;
16520;SDS011;8373;48.110;11.522;2022-09-16T16:29:28;20.43;;;7.73;;
16520;SDS011;8373;48.110;11.522;2022-09-16T16:32:00;18.23;;;8.03;;
16520;SDS011;8373;48.110;11.522;2022-09-16T16:34:30;13.37;;;7.77;;
16520;SDS011;8373;48.110;11.522;2022-09-16T16:36:58;13.17;;;6.57;;
16520;SDS011;8373;48.110;11.522;2022-09-16T16:39:25;14.97;;;7.13;;
16520;SDS011;8373;48.110;11.522;2022-09-16T16:41:52;13.57;;;7.50;;
16520;SDS011;8373;48.110;11.522;2022-09-16T16:44:20;17.40;;;7.93;;
16520;SDS011;8373;48.110;11.522;2022-09-16T16:46:49;15.07;;;8.33;;
16520;SDS011;8373;48.110;11.522;2022-09-16T16:49:18;13.37;;;7.63;;
16520;SDS011;8373;48.110;11.522;2022-09-16T16:51:46;13.60;;;7.40;;
16520;SDS011;8373;48.110;11.522;2022-09-16T16:54:14;18.73;;;9.33;;
16520;SDS011;8373;48.110;11.522;2022-09-16T16:56:42;13.57;;;7.83;;
16520;SDS011;8373;48.110;11.522;2022-09-16T16:59:09;15.93;;;8.60;;
16520;SDS011;8373;48.110;11.522;2022-09-16T17:01:36;18.10;;;8.00;;
16520;SDS011;8373;48.110;11.522;2022-09-16T17:04:03;12.17;;;7.20;;
16520;SDS011;8373;48.110;11.522;2022-09-16T17:06:32;14.30;;;8.27;;
16520;SDS011;8373;48.110;11.522;2022-09-16T17:09:01;13.50;;;7.97;;
16520;SDS011;8373;48.110;11.522;2022-09-16T17:11:28;17.23;;;7.80;;
16520;SDS011;8373;48.110;11.522;2022-09-16T17:13:56;13.80;;;7.83;;
16520;SDS011;8373;48.110;11.522;2022-09-16T17:16:25;15.73;;;7.63;;
16520;SDS011;8373;48.110;11.522;2022-09-16T17:18:53;14.80;;;7.27;;
16520;SDS011;8373;48.110;11.522;2022-09-16T17:21:20;13.93;;;7.30;;
16520;SDS011;8373;48.110;11.522;2022-09-16T17:23:50;19.83;;;7.23;;
16520;SDS011;8373;48.110;11.522;2022-09-16T17:26:18;17.13;;;8.60;;
16520;SDS011;8373;48.110;11.522;2022-09-16T17:28:46;24.77;;;9.00;;
16520;SDS011;8373;48.110;11.522;2022-09-16T17:31:15;21.40;;;8.80;;
16520;SDS011;8373;48.110;11.522;2022-09-16T17:33:44;14.87;;;8.23;;
16520;SDS011;8373;48.110;11.522;2022-09-16T17:36:12;15.80;;;7.30;;
16520;SDS011;8373;48.110;11.522;2022-09-16T17:38:40;15.77;;;8.77;;
16520;SDS011;8373;48.110;11.522;2022-09-16T17:41:09;18.30;;;7.10;;
16520;SDS011;8373;48.110;11.522;2022-09-16T17:43:38;12.00;;;7.23;;
16520;SDS011;8373;48.110;11.522;2022-09-16T17:46:06;18.27;;;7.93;;
16520;SDS011;8373;48.110;11.522;2022-09-16T17:48:36;22.87;;;8.63;;
16520;SDS011;8373;48.110;11.522;2022-09-16T17:51:03;18.87;;;8.67;;
16520;SDS011;8373;48.110;11.522;2022-09-16T17:53:31;14.00;;;8.20;;
16520;SDS011;8373;48.110;11.522;2022-09-16T17:56:02;17.97;;;8.70;;
16520;SDS011;8373;48.110;11.522;2022-09-16T17:58:32;18.33;;;8.33;;
16520;SDS011;8373;48.110;11.522;2022-09-16T18:01:04;15.70;;;9.00;;
16520;SDS011;8373;48.110;11.522;2022-09-16T18:03:32;16.60;;;7.90;;
16520;SDS011;8373;48.110;11.522;2022-09-16T18:06:07;18.80;;;8.63;;
16520;SDS011;8373;48.110;11.522;2022-09-16T18:08:37;16.57;;;9.60;;
16520;SDS011;8373;48.110;11.522;2022-09-16T18:11:05;20.47;;;9.47;;
16520;SDS011;8373;48.110;11.522;2022-09-16T18:13:35;17.83;;;8.37;;
16520;SDS011;8373;48.110;11.522;2022-09-16T18:16:07;14.27;;;8.10;;
16520;SDS011;8373;48.110;11.522;2022-09-16T18:18:36;17.60;;;8.53;;
16520;SDS011;8373;48.110;11.522;2022-09-16T18:21:05;26.00;;;9.03;;
16520;SDS011;8373;48.110;11.522;2022-09-16T18:23:34;19.73;;;9.87;;
16520;SDS011;8373;48.110;11.522;2022-09-16T18:26:02;14.90;;;8.13;;
16520;SDS011;8373;48.110;11.522;2022-09-16T18:28:30;15.77;;;9.40;;
16520;SDS011;8373;48.110;11.522;2022-09-16T18:31:02;17.57;;;9.97;;
16520;SDS011;8373;48.110;11.522;2022-09-16T18:33:30;17.20;;;9.03;;
16520;SDS011;8373;48.110;11.522;2022-09-16T18:35:57;15.20;;;8.50;;
16520;SDS011;8373;48.110;11.522;2022-09-16T18:38:25;20.03;;;8.80;;
16520;SDS011;8373;48.110;11.522;2022-09-16T18:41:01;19.70;;;9.30;;
16520;SDS011;8373;48.110;11.522;2022-09-16T18:43:29;22.50;;;9.70;;
16520;SDS011;8373;48.110;11.522;2022-09-16T18:46:06;16.10;;;8.87;;
16520;SDS011;8373;48.110;11.522;2022-09-16T18:48:37;18.50;;;9.00;;
16520;SDS011;8373;48.110;11.522;2022-09-16T18:51:12;20.83;;;9.17;;
16520;SDS011;8373;48.110;11.522;2022-09-16T18:53:42;16.47;;;8.40;;
16520;SDS011;8373;48.110;11.522;2022-09-16T18:56:10;15.00;;;8.10;;
16520;SDS011;8373;48.110;11.522;2022-09-16T18:58:38;16.60;;;8.47;;
16520;SDS011;8373;48.110;11.522;2022-09-16T19:01:11;16.83;;;9.20;;
16520;SDS011;8373;48.110;11.522;2022-09-16T19:03:44;17.87;;;9.10;;
16520;SDS011;8373;48.110;11.522;2022-09-16T19:06:11;22.37;;;8.70;;
16520;SDS011;8373;48.110;11.522;2022-09-16T19:08:38;17.33;;;8.00;;
16520;SDS011;8373;48.110;11.522;2022-09-16T19:11:05;20.63;;;9.87;;